Mercury Ace — 3FNS7 — position and weather

sailwx.info

Track history (hours):
 
Tides and Currents Weather Stations Pressure Air Temp Water Temp Dewpoint Dewpoint Depression Visibility Wind Speed Wind Dir Waves Ship Positions

Mercury Ace

Last reported at 2017-Sep-15 13:36 UTC. Time now 2017-Sep-20 21:52 UTC.
Position N 29°32' W 121°31'.

Length 199 m; draft 9.6 m.

Type: Ship. MMSI: 370644000.

Date/timePositionNaut miles runAvg speedWind from/ knotsBaromVisibWave heightAir tempDewpointWater temp
2017-Sep-15 13:36N 29°32' W 121°31'218.4
2017-Sep-15 13:30N 29°33' W 121°32'3618.3
2017-Sep-15 11:33N 29°55' W 122°04'118.2
2017-Sep-15 11:30N 29°56' W 122°05'917.9
2017-Sep-15 11:00N 30°01' W 122°13'917.7
2017-Sep-15 10:30N 30°07' W 122°21'918.2
2017-Sep-15 09:59N 30°12' W 122°30'3417.9
2017-Sep-15 08:05N 30°33' W 123°01'2717.7
2017-Sep-15 06:35N 30°47' W 123°28'117.8
2017-Sep-15 06:30N 30°47' W 123°29'917.7
2017-Sep-15 06:00N 30°52' W 123°38'917.6
2017-Sep-15 05:30N 30°57' W 123°47'1017.6
2017-Sep-15 04:56N 31°02' W 123°57'817.6
2017-Sep-15 04:30N 31°06' W 124°04'917.9
2017-Sep-15 04:00N 31°11' W 124°13'917.8
2017-Sep-15 03:29N 31°16' W 124°22'817.7
2017-Sep-15 03:00N 31°20' W 124°31'917.5
2017-Sep-15 02:30N 31°24' W 124°40'917.5
2017-Sep-15 02:00N 31°29' W 124°49'917.5
2017-Sep-15 01:30N 31°33' W 124°58'917.6
2017-Sep-15 01:00N 31°38' W 125°06'2317.7
2017-Sep-14 23:42N 31°50' W 125°29'417.8
2017-Sep-14 23:31N 31°52' W 125°33'918.6
2017-Sep-14 23:00N 31°57' W 125°42'1518.8
2017-Sep-14 22:13N 32°05' W 125°57'418.5
2017-Sep-14 22:00N 32°07' W 126°01'918.7
2017-Sep-14 21:30N 32°12' W 126°10'1118.8
2017-Sep-14 20:55N 32°18' W 126°21'818.9
2017-Sep-14 20:28N 32°22' W 126°30'919.1
2017-Sep-14 20:00N 32°26' W 126°39'918.9
2017-Sep-14 19:29N 32°31' W 126°49'1018.9
2017-Sep-14 18:57N 32°37' W 126°59'819.0
2017-Sep-14 18:30N 32°41' W 127°08'1019.1
2017-Sep-14 17:58N 32°47' W 127°18'1219.0
2017-Sep-14 17:18N 32°53' W 127°31'618.9
2017-Sep-14 17:00N 32°56' W 127°37'918.9
2017-Sep-14 16:30N 33°01' W 127°46'4718.8
2017-Sep-14 14:02N 33°25' W 128°34'119.2
2017-Sep-14 14:00N 33°25' W 128°35'2319.0
2017-Sep-14 12:48N 33°37' W 128°58'619.0
2017-Sep-14 12:29N 33°40' W 129°04'2418.9
2017-Sep-14 11:13N 33°53' W 129°28'1919.0
2017-Sep-14 10:12N 34°03' W 129°48'5818.8
2017-Sep-14 07:06N 34°30' W 130°51'218.6
2017-Sep-14 07:00N 34°31' W 130°53'1218.5
2017-Sep-14 06:20N 34°36' W 131°06'  
Track history (hours):
 
Tides and Currents Weather Stations Pressure Air Temp Water Temp Dewpoint Dewpoint Depression Visibility Wind Speed Wind Dir Waves Ship Positions

Mercury Ace

Last reported at 2017-Sep-15 13:36 UTC. Time now 2017-Sep-20 21:52 UTC.
Position N 29°32' W 121°31'.

Length 199 m; draft 9.6 m.

Type: Ship. MMSI: 370644000.

Date/timePositionNaut miles runAvg speedWind from/ knotsBaromVisibWave heightAir tempDewpointWater temp
2017-Sep-15 13:36N 29°32' W 121°31'218.4
2017-Sep-15 13:30N 29°33' W 121°32'3618.3
2017-Sep-15 11:33N 29°55' W 122°04'118.2
2017-Sep-15 11:30N 29°56' W 122°05'917.9
2017-Sep-15 11:00N 30°01' W 122°13'917.7
2017-Sep-15 10:30N 30°07' W 122°21'918.2
2017-Sep-15 09:59N 30°12' W 122°30'3417.9
2017-Sep-15 08:05N 30°33' W 123°01'2717.7
2017-Sep-15 06:35N 30°47' W 123°28'117.8
2017-Sep-15 06:30N 30°47' W 123°29'917.7
2017-Sep-15 06:00N 30°52' W 123°38'917.6
2017-Sep-15 05:30N 30°57' W 123°47'1017.6
2017-Sep-15 04:56N 31°02' W 123°57'817.6
2017-Sep-15 04:30N 31°06' W 124°04'917.9
2017-Sep-15 04:00N 31°11' W 124°13'917.8
2017-Sep-15 03:29N 31°16' W 124°22'817.7
2017-Sep-15 03:00N 31°20' W 124°31'917.5
2017-Sep-15 02:30N 31°24' W 124°40'917.5
2017-Sep-15 02:00N 31°29' W 124°49'917.5
2017-Sep-15 01:30N 31°33' W 124°58'917.6
2017-Sep-15 01:00N 31°38' W 125°06'2317.7
2017-Sep-14 23:42N 31°50' W 125°29'417.8
2017-Sep-14 23:31N 31°52' W 125°33'918.6
2017-Sep-14 23:00N 31°57' W 125°42'1518.8
2017-Sep-14 22:13N 32°05' W 125°57'418.5
2017-Sep-14 22:00N 32°07' W 126°01'918.7
2017-Sep-14 21:30N 32°12' W 126°10'1118.8
2017-Sep-14 20:55N 32°18' W 126°21'818.9
2017-Sep-14 20:28N 32°22' W 126°30'919.1
2017-Sep-14 20:00N 32°26' W 126°39'918.9
2017-Sep-14 19:29N 32°31' W 126°49'1018.9
2017-Sep-14 18:57N 32°37' W 126°59'819.0
2017-Sep-14 18:30N 32°41' W 127°08'1019.1
2017-Sep-14 17:58N 32°47' W 127°18'1219.0
2017-Sep-14 17:18N 32°53' W 127°31'618.9
2017-Sep-14 17:00N 32°56' W 127°37'918.9
2017-Sep-14 16:30N 33°01' W 127°46'4718.8
2017-Sep-14 14:02N 33°25' W 128°34'119.2
2017-Sep-14 14:00N 33°25' W 128°35'2319.0
2017-Sep-14 12:48N 33°37' W 128°58'619.0
2017-Sep-14 12:29N 33°40' W 129°04'2418.9
2017-Sep-14 11:13N 33°53' W 129°28'1919.0
2017-Sep-14 10:12N 34°03' W 129°48'5818.8
2017-Sep-14 07:06N 34°30' W 130°51'218.6
2017-Sep-14 07:00N 34°31' W 130°53'1218.5
2017-Sep-14 06:20N 34°36' W 131°06'  

Dump ship's entire track history